METAR AND TAF INFORMATION
METAR FOR LEZL
ADDS - METARS form results

(2034 UTC 03 August 2021)
Data provider http://aviationweather.gov/metar/data/
 
METAR text: LEZL 032030Z 25008KT 220V280 CAVOK 30/11 Q1014 NOSIG
Conditions at: LEZL (SEVILLA (CIV/MIL, ES) observed 2030 UTC 03 August 2021
Temperature: 30.0°C (86°F)
Dewpoint: 11.0°C (52°F) [RH = 31%]
Pressure (altimeter): 29.94 inches Hg (1014.0 mb)
Winds: from the WSW (250 degrees) at 9 MPH (8 knots; 4.1 m/s)
Visibility: 6 or more miles (10+ km)
Ceiling: ceiling and visibility are OK
Clouds: unknown
Weather: no significant weather observed at this time

METAR text: LEZL 032000Z 26012KT 220V290 CAVOK 31/11 Q1013 NOSIG
Conditions at: LEZL (SEVILLA (CIV/MIL, ES) observed 2000 UTC 03 August 2021
Temperature: 31.0°C (88°F)
Dewpoint: 11.0°C (52°F) [RH = 29%]
Pressure (altimeter): 29.91 inches Hg (1013.0 mb)
Winds: from the W (260 degrees) at 14 MPH (12 knots; 6.2 m/s)
Visibility: 6 or more miles (10+ km)
Ceiling: ceiling and visibility are OK
Clouds: unknown
Weather: no significant weather observed at this time

Forecast for: LEZL (SEVILLA (CIV/MIL, ES)
Text: TAF LEZL 032000Z 0321/0421 25007KT CAVOK TX39/0417Z TN23/0406Z
Forecast period: 2100 UTC 03 August 2021 to 2100 UTC 04 August 2021
Forecast type: FROM: standard forecast or significant change
Winds: from the WSW (250 degrees) at 8 MPH (7 knots; 3.6 m/s)
Visibility: 6 or more miles (10+ km)
Ceiling: unknown
Clouds: missing
Weather: no significant weather forecast for this period

 AIRPORT MAP

 RUNWAY INFORMATION
Runway 09 Runway length 11024 ft Runway width 148 ft
Runway elevation 83 ft Runway displaced threshold 0 ft Runway heading 90
Runway 27 Runway length 11024 ft Runway width 148 ft
Runway elevation 111 ft Runway displaced threshold 0 ft Runway heading 270

 AIRPORT FREQUENCIES
Type APP Name APP Frequency 120 MHZ
Type ATIS Name ATIS Frequency 118.175 MHZ
Type GND Name GND Frequency 121.7 MHZ
Type TWR Name TWR Frequency 118.1 MHZ

 AIRPORT NEAR NAVIGATION AIDS
Type NDB Name Sevilla Frequency 420 KHZ
Type VOR-DME Name Sevilla Frequency 113700 KHZ





Powered by Virtual Airlines Manager

Maps by Rafael Santos